Skip to main content.
 TIME   TEMPERATURE   WINDSPEED   DIRECTION   HUMIDITY   BAROMETER   RAINFALL 
4:50 28.0°C (82.4°F) 13.0 kmh (8.1 mph) NNW 60% 1015.0hPa (29.97 inHg) 0.0mm (0.00 in.)
3:50 28.2°C (82.8 °F) 1.9 kmh (1.2 mph) NNE 63% 1015.0hPa (29.97 inHg) 0.0mm (0.00 in.)
2:50 28.2°C (82.8 °F) 7.4 kmh (4.6 mph) W 65% 1016.0hPa (30.00 inHg) 0.0mm (0.00 in.)
1:50 28.8°C (83.8 °F) 1.9 kmh (1.2 mph) W 64% 1016.0hPa (30.00 inHg) 0.0mm (0.00 in.)
12:47 29.0°C (84.2 °F) 0.0 kmh (0.0 mph) W 64% 1016.0hPa (30.00 inHg) 0.0mm (0.00 in.)
11:47 28.5°C (83.3 °F) 14.8 kmh (9.2 mph) WNW 66% 1016.0hPa (30.00 inHg) 0.0mm (0.00 in.)
10:47 26.8°C (80.2 °F) 13.0 kmh (8.1 mph) W 68% 1017.0hPa (30.03 inHg) 0.0mm (0.00 in.)
9:47 26.3°C (79.3 °F) 13.0 kmh (8.1 mph) W 71% 1016.0hPa (30.00 inHg) 0.0mm (0.00 in.)
8:47 25.6°C (78.1 °F) 0.0 kmh (0.0 mph) WNW 73% 1016.0hPa (30.00 inHg) 0.0mm (0.00 in.)
7:41 24.6°C (76.3 °F) 0.0 kmh (0.0 mph) WNW 74% 1016.0hPa (30.00 inHg) 0.0mm (0.00 in.)
6:41 24.3°C (75.7 °F) 0.0 kmh (0.0 mph) WNW 71% 1015.0hPa (29.97 inHg) 0.0mm (0.00 in.)
5:41 24.3°C (75.7 °F) 0.0 kmh (0.0 mph) NW 71% 1015.0hPa (29.97 inHg) 0.0mm (0.00 in.)
4:41 24.4°C (75.9 °F) 0.0 kmh (0.0 mph) WNW 70% 1015.0hPa (29.97 inHg) 0.0mm (0.00 in.)
3:41 24.4°C (75.9 °F) 0.0 kmh (0.0 mph) WNW 70% 1015.0hPa (29.97 inHg) 0.0mm (0.00 in.)
2:41 24.5°C (76.1 °F) 0.0 kmh (0.0 mph) NW 69% 1015.0hPa (29.97 inHg) 0.0mm (0.00 in.)
1:41 24.7°C (76.5 °F) 7.4 kmh (4.6 mph) WNW 69% 1016.0hPa (30.00 inHg) 0.0mm (0.00 in.)
12:41 24.7°C (76.5 °F) 0.0 kmh (0.0 mph) W 68% 1016.0hPa (30.00 inHg) 0.0mm (0.00 in.)
11:41 24.7°C (76.5 °F) 0.0 kmh (0.0 mph) WNW 68% 1016.0hPa (30.00 inHg) 0.0mm (0.00 in.)
10:41 24.8°C (76.6 °F) 0.0 kmh (0.0 mph) W 67% 1016.0hPa (30.00 inHg) 0.0mm (0.00 in.)
9:41 25.1°C (77.2 °F) 0.0 kmh (0.0 mph) W 65% 1016.0hPa (30.00 inHg) 0.0mm (0.00 in.)
8:41 25.5°C (77.9 °F) 1.9 kmh (1.2 mph) W 63% 1015.0hPa (29.97 inHg) 0.0mm (0.00 in.)
7:41 26.0°C (78.8 °F) 0.0 kmh (0.0 mph) W 59% 1015.0hPa (29.97 inHg) 0.0mm (0.00 in.)
6:41 28.4°C (83.1 °F) 1.9 kmh (1.2 mph) WNW 56% 1016.0hPa (30.00 inHg) 0.0mm (0.00 in.)
5:41 28.7°C (83.7 °F) 14.8 kmh (9.2 mph) WNW 52% 1016.0hPa (30.00 inHg) 0.0mm (0.00 in.)